Time;durP1;ratioP1;P1;durP2;ratioP2;P2;SDS_P1;SDS_P2;PMS_P1;PMS_P2;Temp;Humidity;BMP_temperature;BMP_pressure;BME280_temperature;BME280_humidity;BME280_pressure;Samples;Min_cycle;Max_cycle;Signal;HPM_P1;HPM_P2
2021/12/30 00:01:56;;;;;;;16.17;4.60;;;16.40;99.90;;;16.42;57.95;100726.47;4950434;28;97536;-45
2021/12/30 00:04:24;;;;;;;11.63;3.87;;;16.40;99.90;;;16.38;56.15;100727.59;4972884;28;97424;-48
2021/12/30 00:06:51;;;;;;;16.97;4.90;;;16.30;99.90;;;16.39;56.81;100728.47;4950971;28;99630;-43
2021/12/30 00:09:19;;;;;;;20.03;5.70;;;16.30;99.90;;;16.35;55.36;100744.63;4943881;28;100038;-48
2021/12/30 00:11:46;;;;;;;15.43;4.10;;;16.30;99.90;;;16.39;54.42;100755.09;4953471;28;97817;-49
2021/12/30 00:14:12;;;;;;;20.77;5.27;;;16.30;99.90;;;16.38;55.24;100774.66;4956778;28;96781;-48
2021/12/30 00:16:38;;;;;;;16.97;4.40;;;16.30;99.90;;;16.33;54.82;100772.25;4949694;28;99290;-47
2021/12/30 00:19:04;;;;;;;15.97;4.90;;;16.30;99.90;;;16.39;57.27;100792.34;4943926;28;98862;-48
2021/12/30 00:21:30;;;;;;;16.00;4.23;;;16.40;99.90;;;16.42;55.67;100787.69;4959621;28;98847;-44
2021/12/30 00:23:56;;;;;;;22.33;5.37;;;16.50;99.90;;;16.49;57.00;100789.06;4962353;28;97259;-46
2021/12/30 00:26:22;;;;;;;22.30;5.67;;;16.60;99.90;;;16.47;54.79;100790.94;4959402;28;97965;-48
2021/12/30 00:28:48;;;;;;;20.57;5.43;;;16.60;99.90;;;16.47;57.51;100793.59;4929316;28;98858;-44
2021/12/30 00:31:15;;;;;;;9.80;3.70;;;16.50;99.90;;;16.53;53.69;100801.25;4955191;28;98767;-44
2021/12/30 00:33:41;;;;;;;25.73;5.63;;;16.60;99.90;;;16.55;54.15;100798.50;4956738;28;99095;-51
2021/12/30 00:36:09;;;;;;;21.63;5.57;;;16.60;99.90;;;16.57;54.58;100808.13;4949097;28;98152;-50
2021/12/30 00:38:38;;;;;;;24.13;6.37;;;16.60;99.90;;;16.55;54.94;100806.50;4943943;28;101760;-49
2021/12/30 00:41:04;;;;;;;20.10;4.87;;;16.50;99.90;;;16.47;54.50;100811.38;4952698;28;98847;-46
2021/12/30 00:43:30;;;;;;;16.13;4.83;;;16.50;99.90;;;16.55;54.00;100820.66;4952326;28;97434;-49
2021/12/30 00:45:56;;;;;;;21.27;5.73;;;16.60;99.90;;;16.58;56.64;100824.94;4946682;28;99245;-47
2021/12/30 00:48:22;;;;;;;14.23;4.57;;;16.60;99.90;;;16.58;53.48;100808.97;4957068;28;99242;-44
2021/12/30 00:50:48;;;;;;;16.33;5.03;;;16.60;99.90;;;16.49;54.29;100814.81;4948839;28;100032;-45
2021/12/30 00:53:14;;;;;;;16.57;5.43;;;16.60;99.90;;;16.45;57.11;100821.28;4952052;28;97389;-48
2021/12/30 00:55:41;;;;;;;16.57;4.53;;;16.50;99.90;;;16.48;56.88;100831.75;4945271;28;99716;-49
2021/12/30 00:58:08;;;;;;;16.27;4.97;;;16.50;99.90;;;16.45;56.37;100839.91;4958087;28;104502;-47
2021/12/30 01:00:38;;;;;;;21.73;6.37;;;16.50;99.90;;;16.43;54.14;100839.13;4942598;28;99914;-48
2021/12/30 01:03:04;;;;;;;16.63;5.17;;;16.50;99.90;;;16.47;54.02;100843.34;4949811;28;98472;-50
2021/12/30 01:05:30;;;;;;;17.90;5.63;;;16.50;99.90;;;16.45;57.26;100846.09;4946037;28;98368;-44
2021/12/30 01:07:56;;;;;;;22.47;6.63;;;16.50;99.90;;;16.38;56.99;100846.53;4938262;28;101111;-48
2021/12/30 01:10:24;;;;;;;21.30;6.07;;;16.40;99.90;;;16.34;56.15;100838.72;4951310;28;99150;-48
2021/12/30 01:12:52;;;;;;;21.53;5.87;;;16.30;99.90;;;16.23;58.74;100833.16;4948598;28;97830;-48
2021/12/30 01:15:21;;;;;;;18.83;5.60;;;16.20;99.90;;;16.19;55.71;100839.56;4969364;28;98348;-46
2021/12/30 01:20:16;;;;;;;25.90;6.30;;;16.10;99.90;;;16.24;54.93;100831.34;4949833;28;97578;-45
2021/12/30 01:22:42;;;;;;;16.67;5.07;;;16.20;99.90;;;16.27;55.89;100826.69;4941865;28;99049;-49
2021/12/30 01:25:11;;;;;;;12.03;3.57;;;16.30;99.90;;;16.25;56.55;100827.75;4954968;28;97396;-45
2021/12/30 01:27:40;;;;;;;19.60;6.17;;;16.20;99.90;;;16.20;57.58;100836.00;4963148;28;98201;-48
2021/12/30 01:30:12;;;;;;;14.23;3.93;;;16.10;99.90;;;16.20;57.76;100836.00;4947874;28;101244;-50
2021/12/30 01:32:38;;;;;;;15.87;5.13;;;16.10;99.90;;;16.16;59.04;100833.56;4951109;28;98295;-46
2021/12/30 01:35:05;;;;;;;20.60;6.13;;;16.10;99.90;;;16.21;54.95;100837.72;4940782;28;98535;-47
2021/12/30 01:37:32;;;;;;;8.70;2.80;;;16.10;99.90;;;16.21;55.53;100845.69;4953700;28;99196;-48
2021/12/30 01:39:57;;;;;;;12.67;4.07;;;16.10;99.90;;;16.22;55.54;100852.72;4943882;28;97708;-44
2021/12/30 01:42:24;;;;;;;9.23;3.23;;;16.10;99.90;;;16.19;57.61;100854.69;4967184;27;98822;-45
2021/12/30 01:44:49;;;;;;;16.60;5.40;;;16.10;99.90;;;16.11;59.83;100863.09;4946696;28;100783;-50
2021/12/30 01:47:16;;;;;;;21.27;5.27;;;16.00;99.90;;;16.08;59.14;100863.28;4950818;28;101171;-46
2021/12/30 01:49:42;;;;;;;19.30;5.23;;;15.90;99.90;;;16.05;58.27;100864.28;4942149;28;98330;-53
2021/12/30 01:52:08;;;;;;;20.03;4.73;;;15.90;99.90;;;15.96;61.23;100869.28;4948324;28;97174;-48
2021/12/30 01:54:34;;;;;;;14.97;4.97;;;15.80;99.90;;;15.96;58.47;100863.94;4950886;28;97701;-47
2021/12/30 01:57:06;;;;;;;9.20;3.57;;;15.80;99.90;;;15.98;58.16;100868.25;4958056;28;98252;-45
2021/12/30 01:59:32;;;;;;;10.57;4.13;;;15.80;99.90;;;15.99;57.20;100863.78;4955810;28;97144;-49
2021/12/30 02:01:58;;;;;;;10.37;3.00;;;15.80;99.90;;;15.99;55.55;100861.97;4953630;28;97491;-48
2021/12/30 02:04:29;;;;;;;14.87;4.87;;;15.80;99.90;;;16.03;55.65;100855.53;4950073;28;99480;-44
2021/12/30 02:06:57;;;;;;;16.33;5.23;;;15.90;99.90;;;16.05;58.52;100852.78;4950259;28;97700;-44
2021/12/30 02:09:24;;;;;;;12.77;4.37;;;15.90;99.90;;;16.04;56.10;100856.38;4953632;28;97730;-45
2021/12/30 02:11:50;;;;;;;10.70;3.73;;;15.90;99.90;;;16.07;56.36;100856.25;4936793;28;97325;-48
2021/12/30 02:14:17;;;;;;;16.00;4.87;;;15.90;99.90;;;16.07;58.97;100848.25;4946575;28;97409;-50
2021/12/30 02:16:44;;;;;;;14.30;5.30;;;15.90;99.90;;;16.04;57.95;100853.72;4946994;28;98062;-46
2021/12/30 02:19:09;;;;;;;9.43;3.23;;;15.90;99.90;;;16.06;55.47;100855.38;4947293;28;98307;-47
2021/12/30 02:21:35;;;;;;;12.50;3.80;;;15.90;99.90;;;16.08;56.15;100847.31;4946154;28;98396;-46
2021/12/30 02:24:02;;;;;;;16.93;4.70;;;15.90;99.90;;;16.05;57.86;100842.13;4941809;28;98563;-49
2021/12/30 02:26:28;;;;;;;16.30;5.53;;;15.90;99.90;;;16.03;61.34;100850.22;4948905;28;98919;-48
2021/12/30 02:28:55;;;;;;;15.53;4.27;;;15.90;99.90;;;16.04;60.14;100841.28;4957272;28;100972;-48
2021/12/30 02:31:29;;;;;;;12.53;4.40;;;15.90;99.90;;;16.06;58.37;100838.56;4953234;28;98643;-46
2021/12/30 02:33:56;;;;;;;17.37;4.60;;;15.90;99.90;;;16.03;56.87;100844.03;4938175;28;98587;-48
2021/12/30 02:36:33;;;;;;;13.33;4.13;;;15.80;99.90;;;16.06;59.86;100849.22;4946509;28;98201;-44
2021/12/30 02:39:04;;;;;;;15.00;5.00;;;15.90;99.90;;;16.03;60.67;100844.03;4959419;28;99410;-47
2021/12/30 02:41:34;;;;;;;15.53;4.83;;;15.90;99.90;;;15.98;61.71;100851.41;4949978;28;101297;-48
2021/12/30 02:44:03;;;;;;;8.43;3.17;;;15.80;99.90;;;16.02;55.77;100844.97;4945942;28;99065;-47
2021/12/30 02:46:30;;;;;;;13.27;3.83;;;15.90;99.90;;;16.01;59.98;100841.47;4948818;28;98458;-48
2021/12/30 02:48:58;;;;;;;13.60;4.90;;;15.90;99.90;;;16.05;60.99;100843.00;4958500;28;97367;-47
2021/12/30 02:51:25;;;;;;;14.50;4.23;;;15.90;99.90;;;16.05;56.10;100842.13;4949723;28;99258;-48
2021/12/30 02:53:52;;;;;;;12.10;3.83;;;15.90;99.90;;;16.02;58.24;100844.97;4954735;28;99202;-46
2021/12/30 02:56:19;;;;;;;9.23;2.70;;;15.90;99.90;;;16.03;56.81;100844.03;4948634;28;98795;-46
2021/12/30 02:58:45;;;;;;;12.00;3.87;;;15.90;99.90;;;16.09;55.33;100843.72;4948091;28;96968;-45
2021/12/30 03:01:19;;;;;;;13.47;4.23;;;15.90;99.90;;;16.15;57.48;100854.00;4961037;28;98517;-48
2021/12/30 03:03:45;;;;;;;15.10;4.70;;;16.00;99.90;;;16.17;55.26;100857.44;4962014;28;98943;-44
2021/12/30 03:06:15;;;;;;;10.03;3.10;;;16.10;99.90;;;16.22;56.56;100863.38;4953470;28;98303;-44
2021/12/30 03:08:42;;;;;;;10.37;3.33;;;16.10;99.90;;;16.24;55.22;100853.50;4946657;28;96859;-53
2021/12/30 03:11:09;;;;;;;10.80;4.30;;;16.10;99.90;;;16.27;59.40;100858.66;4947663;28;98217;-46
2021/12/30 03:13:36;;;;;;;12.40;4.73;;;16.20;99.90;;;16.26;58.92;100850.75;4951365;28;98827;-46
2021/12/30 03:16:07;;;;;;;9.00;4.27;;;16.10;99.90;;;16.27;61.53;100858.66;4945413;28;102482;-45
2021/12/30 03:18:36;;;;;;;16.97;5.00;;;16.10;99.90;;;16.23;62.69;100858.91;4946948;28;98417;-45
2021/12/30 03:21:06;;;;;;;10.50;4.10;;;16.10;99.90;;;16.29;54.69;100867.41;4956706;28;98079;-48
2021/12/30 03:23:32;;;;;;;6.00;2.73;;;16.20;99.90;;;16.31;55.96;100873.50;4943029;28;97673;-47
2021/12/30 03:25:59;;;;;;;11.87;4.40;;;16.20;99.90;;;16.32;59.10;100874.34;4942398;28;99988;-45
2021/12/30 03:28:25;;;;;;;11.63;4.10;;;16.20;99.90;;;16.29;61.98;100883.38;4948188;28;97917;-50
2021/12/30 03:30:51;;;;;;;3.97;2.07;;;16.20;99.90;;;16.29;55.67;100885.16;4938528;28;98133;-50
2021/12/30 03:33:20;;;;;;;11.17;4.23;;;16.10;99.90;;;16.31;59.39;100885.94;4942386;28;98557;-50
2021/12/30 03:35:47;;;;;;;7.40;2.60;;;16.20;99.90;;;16.29;56.35;100883.38;4942679;28;97928;-45
2021/12/30 03:38:13;;;;;;;10.33;3.77;;;16.20;99.90;;;16.29;57.69;100882.50;4943129;28;100088;-46
2021/12/30 03:40:39;;;;;;;15.87;4.63;;;16.10;99.90;;;16.29;60.17;100878.03;4947614;28;98938;-46
2021/12/30 03:43:05;;;;;;;11.40;4.80;;;16.10;99.90;;;16.30;61.09;100881.56;4948358;28;97458;-47
2021/12/30 03:45:30;;;;;;;12.03;5.20;;;16.10;99.90;;;16.27;60.96;100869.28;4963394;28;99918;-48
2021/12/30 03:47:56;;;;;;;6.23;2.30;;;16.10;99.90;;;16.31;54.66;100876.16;4944383;28;99291;-46
2021/12/30 03:50:27;;;;;;;8.67;3.10;;;16.10;99.90;;;16.33;56.74;100874.25;4945609;28;97483;-46
2021/12/30 03:53:00;;;;;;;6.97;3.13;;;16.20;99.90;;;16.32;56.00;100882.34;4961361;28;98402;-47
2021/12/30 03:55:29;;;;;;;10.77;5.00;;;16.10;99.90;;;16.27;61.29;100879.09;4952643;28;98374;-44
2021/12/30 03:57:55;;;;;;;10.10;3.53;;;16.10;99.90;;;16.27;59.14;100887.06;4940151;28;97166;-48
2021/12/30 04:00:24;;;;;;;12.27;5.80;;;16.10;99.90;;;16.24;60.51;100885.44;4945200;28;98632;-46
2021/12/30 04:02:50;;;;;;;11.90;5.30;;;16.00;99.90;;;16.22;62.08;100884.66;4957430;28;97006;-46
2021/12/30 04:05:17;;;;;;;12.70;4.43;;;16.00;99.90;;;16.22;58.49;100886.47;4943306;28;97945;-47
2021/12/30 04:07:43;;;;;;;12.87;5.27;;;16.00;99.90;;;16.18;63.67;100885.75;4939080;28;97373;-51
2021/12/30 04:10:13;;;;;;;13.47;4.67;;;16.00;99.90;;;16.14;60.48;100889.53;4950171;28;97549;-50
2021/12/30 04:12:39;;;;;;;12.63;4.33;;;16.00;99.90;;;16.05;62.72;100890.88;4958333;28;98524;-46
2021/12/30 04:15:07;;;;;;;10.60;4.40;;;15.90;99.90;;;16.05;64.62;100884.72;4940076;28;99809;-47
2021/12/30 04:17:34;;;;;;;12.03;4.37;;;15.90;99.90;;;16.02;63.24;100880.41;4953932;28;100193;-47
2021/12/30 04:20:00;;;;;;;8.60;3.93;;;15.90;99.90;;;16.03;58.82;100891.94;4944679;28;97952;-48
2021/12/30 04:22:26;;;;;;;12.70;4.47;;;15.90;99.90;;;16.04;62.44;100893.63;4958446;28;98755;-44
2021/12/30 04:24:51;;;;;;;12.90;3.50;;;15.90;99.90;;;16.03;64.99;100886.59;4968238;28;110772;-46
2021/12/30 04:27:18;;;;;;;9.07;4.40;;;15.90;99.90;;;16.00;63.09;100886.78;4978266;28;98951;-46
2021/12/30 04:29:44;;;;;;;9.97;4.57;;;15.80;99.90;;;15.99;66.18;100885.91;4970750;27;96817;-48
2021/12/30 04:32:10;;;;;;;9.57;4.00;;;15.80;99.90;;;15.93;67.60;100882.75;4978920;28;98950;-45
2021/12/30 04:34:36;;;;;;;8.47;3.83;;;15.80;99.90;;;15.87;68.96;100877.75;4976938;28;97800;-47
2021/12/30 04:37:02;;;;;;;10.17;3.90;;;15.70;99.90;;;15.90;67.73;100880.22;4970653;28;97655;-48
2021/12/30 04:39:31;;;;;;;7.67;3.17;;;15.70;99.90;;;15.91;64.07;100872.19;4982716;28;97592;-46
2021/12/30 04:42:01;;;;;;;4.77;2.40;;;15.80;99.90;;;15.90;60.42;100888.22;4975550;27;98657;-47
2021/12/30 04:44:29;;;;;;;8.57;2.63;;;15.80;99.90;;;15.91;67.20;100887.25;4972927;28;98507;-47
2021/12/30 04:46:56;;;;;;;5.60;2.30;;;15.80;99.90;;;15.86;63.62;100881.34;4983205;28;99331;-45
2021/12/30 04:49:23;;;;;;;4.83;2.00;;;15.70;99.90;;;15.83;68.56;100894.81;4976318;28;97145;-44
2021/12/30 04:51:50;;;;;;;3.77;2.07;;;15.70;99.90;;;15.83;64.78;100897.47;4973549;28;96889;-45
2021/12/30 04:54:16;;;;;;;6.70;1.90;;;15.70;99.90;;;15.88;63.99;100892.75;4975838;28;99134;-46
2021/12/30 04:56:43;;;;;;;3.27;2.10;;;15.70;99.90;;;15.87;59.84;100886.56;4974393;28;97492;-50
2021/12/30 04:59:09;;;;;;;4.57;2.67;;;15.70;99.90;;;15.90;67.78;100890.88;4972944;28;97043;-43
2021/12/30 05:01:50;;;;;;;5.47;2.53;;;15.80;99.90;;;15.88;68.75;100893.63;4980675;28;97204;-46
2021/12/30 05:04:16;;;;;;;5.50;2.80;;;15.70;99.90;;;15.89;68.55;100894.47;4964119;28;105788;-44
2021/12/30 05:06:42;;;;;;;4.93;2.87;;;15.80;99.90;;;15.94;67.92;100892.44;4978591;28;97774;-51
2021/12/30 05:09:09;;;;;;;7.73;2.93;;;15.80;99.90;;;15.93;64.23;100893.38;4969835;28;96739;-44
2021/12/30 05:11:42;;;;;;;6.20;2.77;;;15.80;99.90;;;15.93;67.64;100906.69;4978913;28;96971;-45
2021/12/30 05:14:12;;;;;;;7.43;2.50;;;15.80;99.90;;;15.97;64.12;100913.56;4970217;28;104037;-44
2021/12/30 05:16:39;;;;;;;6.17;3.00;;;15.80;99.90;;;15.98;64.32;100909.94;4985963;28;97278;-44
2021/12/30 05:19:05;;;;;;;5.00;3.10;;;15.80;99.90;;;15.95;68.80;100910.13;4969282;28;96837;-46
2021/12/30 05:21:32;;;;;;;7.57;2.83;;;15.80;99.90;;;15.96;65.95;100906.53;4973217;28;97073;-46
2021/12/30 05:23:58;;;;;;;3.33;2.37;;;15.80;99.90;;;15.99;60.26;100911.66;4968066;28;98813;-47
2021/12/30 05:26:27;;;;;;;3.33;2.20;;;15.80;99.90;;;16.02;60.76;100924.78;4974662;28;97234;-49
2021/12/30 05:28:54;;;;;;;2.27;1.20;;;15.90;99.90;;;16.07;57.65;100920.09;4989209;28;101223;-44
2021/12/30 05:31:20;;;;;;;3.30;1.93;;;15.90;99.90;;;16.08;57.91;100921.81;4972656;28;97020;-45
2021/12/30 05:33:46;;;;;;;3.53;1.83;;;15.90;99.90;;;16.08;60.12;100911.19;4972758;28;98552;-44
2021/12/30 05:36:12;;;;;;;2.90;1.53;;;15.90;99.90;;;16.11;57.93;100911.00;4975873;28;97244;-44
2021/12/30 05:38:38;;;;;;;3.93;1.93;;;16.00;99.90;;;16.12;64.74;100918.03;4973392;28;101463;-46
2021/12/30 05:41:04;;;;;;;3.07;1.70;;;16.00;99.90;;;16.14;67.45;100910.84;4972338;28;97087;-45
2021/12/30 05:43:30;;;;;;;2.13;1.60;;;16.00;99.90;;;16.19;60.42;100913.22;4973858;28;97771;-45
2021/12/30 05:45:55;;;;;;;2.83;1.30;;;16.00;99.90;;;16.17;66.24;100913.31;4972713;28;101179;-50
2021/12/30 05:48:21;;;;;;;2.10;1.27;;;16.00;99.90;;;16.21;60.97;100916.69;4989585;28;97040;-44
2021/12/30 05:50:47;;;;;;;3.07;1.10;;;16.10;99.90;;;16.16;66.36;100929.38;4969369;28;97705;-46
2021/12/30 05:53:13;;;;;;;2.27;1.00;;;16.00;99.90;;;16.15;58.89;100928.50;4989013;27;99645;-48
2021/12/30 05:55:39;;;;;;;1.67;1.23;;;16.00;99.90;;;16.17;60.09;100926.63;4975643;28;97183;-44
2021/12/30 05:58:05;;;;;;;1.63;1.10;;;16.10;99.90;;;16.22;66.22;100924.59;4971646;28;97369;-50
2021/12/30 06:00:31;;;;;;;1.67;1.03;;;16.20;99.90;;;16.17;63.79;100931.09;4972908;28;99177;-46
2021/12/30 06:02:58;;;;;;;1.90;1.13;;;16.20;99.90;;;16.22;63.95;100935.25;4968510;28;97464;-46
2021/12/30 06:05:25;;;;;;;1.33;1.23;;;16.20;99.90;;;16.28;63.74;100932.22;4974929;28;99933;-47
2021/12/30 06:07:50;;;;;;;1.40;1.30;;;16.30;99.90;;;16.31;64.90;100940.03;4972224;28;96833;-45
2021/12/30 06:10:17;;;;;;;1.17;1.00;;;16.30;99.90;;;16.41;58.48;100934.22;4975788;28;96986;-45
2021/12/30 06:12:43;;;;;;;2.10;1.20;;;16.40;99.90;;;16.47;61.09;100933.88;4970188;28;97574;-51
2021/12/30 06:15:11;;;;;;;1.57;1.00;;;16.50;99.90;;;16.43;58.91;100942.97;4973384;28;101419;-44
2021/12/30 06:17:37;;;;;;;1.97;0.90;;;16.50;99.90;;;16.49;64.33;100942.63;4978014;28;97037;-44
2021/12/30 06:20:07;;;;;;;1.27;0.80;;;16.60;99.90;;;16.55;57.54;100942.28;4986755;28;97915;-44
2021/12/30 06:22:32;;;;;;;0.90;0.90;;;16.60;99.90;;;16.51;60.70;100956.72;4989669;28;99090;-45
2021/12/30 06:24:58;;;;;;;2.43;1.30;;;16.60;99.90;;;16.56;63.74;100954.66;4966250;28;97084;-44
2021/12/30 06:27:24;;;;;;;2.83;1.20;;;16.60;99.90;;;16.57;66.49;100964.38;4973768;28;97403;-47
2021/12/30 06:29:50;;;;;;;1.10;1.00;;;16.70;99.90;;;16.56;64.70;100967.97;4971817;28;106368;-45
2021/12/30 06:32:16;;;;;;;1.50;1.00;;;16.60;99.90;;;16.60;62.43;100967.72;4976865;28;99286;-44
2021/12/30 06:34:42;;;;;;;1.00;0.90;;;16.60;99.90;;;16.54;65.95;100972.53;4976348;28;96929;-46
2021/12/30 06:37:08;;;;;;;1.83;1.23;;;16.70;99.90;;;16.52;64.15;100969.09;4971720;28;97207;-44
2021/12/30 06:39:34;;;;;;;3.20;1.10;;;16.60;99.90;;;16.52;59.10;100974.44;4975147;28;97224;-46
2021/12/30 06:42:00;;;;;;;1.13;1.03;;;16.60;99.90;;;16.50;64.03;100976.31;4971421;28;97748;-46
2021/12/30 06:44:25;;;;;;;2.20;1.07;;;16.70;99.90;;;16.63;66.65;100974.66;4975435;28;100330;-48
2021/12/30 06:46:56;;;;;;;1.73;1.10;;;16.70;99.90;;;16.55;64.81;100980.44;4967474;28;97221;-46
2021/12/30 06:49:23;;;;;;;2.70;1.17;;;16.70;99.90;;;16.66;65.03;100977.19;4975732;28;97489;-46
2021/12/30 06:51:48;;;;;;;1.53;1.10;;;16.70;99.90;;;16.67;65.78;100973.59;4973273;28;98049;-47
2021/12/30 06:54:14;;;;;;;1.77;1.40;;;16.80;99.90;;;16.66;64.65;100978.03;4986714;28;98920;-45
2021/12/30 06:56:40;;;;;;;2.93;1.43;;;16.80;99.90;;;16.58;61.41;100982.06;4977951;28;97706;-44
2021/12/30 06:59:06;;;;;;;1.20;1.10;;;16.70;99.90;;;16.64;64.13;100974.59;4970100;28;97515;-44
2021/12/30 07:01:32;;;;;;;2.80;1.67;;;16.80;99.90;;;16.64;67.53;100969.28;4990867;28;97426;-44
2021/12/30 07:03:58;;;;;;;1.37;1.27;;;16.70;99.90;;;16.56;62.78;100978.63;4969792;28;97141;-44
2021/12/30 07:06:25;;;;;;;2.87;1.67;;;16.60;99.90;;;16.62;61.43;100986.25;4974516;28;96807;-44
2021/12/30 07:08:51;;;;;;;1.27;1.17;;;16.70;99.90;;;16.65;64.21;100976.31;4987625;28;97116;-46
2021/12/30 07:11:16;;;;;;;1.40;1.30;;;16.80;99.90;;;16.56;62.81;100984.81;4988476;28;97515;-44
2021/12/30 07:13:42;;;;;;;1.53;1.20;;;16.80;99.90;;;16.61;65.62;100987.22;4975326;28;105694;-52
2021/12/30 07:16:08;;;;;;;1.63;1.40;;;16.80;99.90;;;16.71;66.86;100985.81;4970665;28;97023;-44
2021/12/30 07:18:34;;;;;;;1.83;1.30;;;16.80;99.90;;;16.73;66.88;100983.91;4978057;28;97165;-44
2021/12/30 07:21:00;;;;;;;2.23;1.10;;;16.80;99.90;;;16.74;65.39;100985.63;4972376;28;100165;-45
2021/12/30 07:23:26;;;;;;;2.47;1.40;;;16.80;99.90;;;16.74;66.25;100984.75;4976420;28;101143;-45
2021/12/30 07:25:52;;;;;;;1.77;1.10;;;16.80;99.90;;;16.66;62.74;100987.84;4971932;28;96805;-45
2021/12/30 07:28:18;;;;;;;1.00;1.00;;;16.80;99.90;;;16.56;62.93;100992.81;4974554;28;96992;-44
2021/12/30 07:30:44;;;;;;;0.90;0.80;;;16.80;99.90;;;16.59;61.40;100986.44;4987297;28;102090;-53
2021/12/30 07:33:10;;;;;;;1.57;0.87;;;16.80;99.90;;;16.61;64.69;101000.53;4971371;28;99362;-45
2021/12/30 07:35:37;;;;;;;1.60;0.93;;;16.80;99.90;;;16.66;64.95;101001.16;4975891;28;97286;-44
2021/12/30 07:38:04;;;;;;;1.83;1.00;;;16.80;99.90;;;16.60;64.83;101015.66;4971116;28;97107;-45
2021/12/30 07:40:31;;;;;;;0.80;0.73;;;16.80;99.90;;;16.55;59.25;101016.84;4973408;28;99812;-47
2021/12/30 07:42:57;;;;;;;0.97;0.80;;;16.70;99.90;;;16.58;62.46;101024.66;4970290;28;99652;-48
2021/12/30 07:45:23;;;;;;;2.00;0.93;;;16.80;99.90;;;16.66;60.69;101030.44;4976485;28;96845;-45
2021/12/30 07:47:50;;;;;;;2.17;1.03;;;16.80;99.90;;;16.65;63.51;101036.72;4973343;28;97177;-46
2021/12/30 07:50:16;;;;;;;0.97;0.57;;;16.80;99.90;;;16.70;63.08;101040.03;4960760;28;97067;-49
2021/12/30 07:52:42;;;;;;;0.83;0.83;;;16.80;99.90;;;16.78;60.28;101048.47;4977274;28;97298;-49
2021/12/30 07:55:11;;;;;;;0.70;0.70;;;16.90;99.90;;;16.72;58.44;101043.44;4974080;28;97566;-52
2021/12/30 07:57:37;;;;;;;0.80;0.80;;;16.90;99.90;;;16.80;65.35;101059.03;4977062;28;96950;-47
2021/12/30 08:00:09;;;;;;;0.93;0.87;;;16.90;99.90;;;16.88;62.91;101062.97;4975399;27;98886;-45
2021/12/30 08:02:35;;;;;;;0.90;0.60;;;17.00;99.90;;;16.90;57.44;101061.06;4995042;28;99138;-47
2021/12/30 08:05:02;;;;;;;0.80;0.60;;;17.00;99.90;;;16.94;56.79;101067.13;4972640;28;97112;-47
2021/12/30 08:07:27;;;;;;;0.93;0.50;;;17.10;99.90;;;16.86;59.05;101075.53;4976269;28;97143;-44
2021/12/30 08:09:54;;;;;;;2.10;0.70;;;17.00;99.90;;;16.77;57.67;101070.69;4990757;27;97611;-44
2021/12/30 08:12:20;;;;;;;1.50;0.80;;;17.00;99.90;;;16.82;63.10;101078.44;4976395;28;100158;-44
2021/12/30 08:14:46;;;;;;;4.77;0.93;;;17.00;99.90;;;16.83;61.08;101081.03;4987237;28;97072;-45
2021/12/30 08:17:12;;;;;;;1.03;0.80;;;17.00;99.90;;;16.81;58.79;101077.59;4990629;28;96834;-49
2021/12/30 08:19:38;;;;;;;0.90;0.90;;;17.00;99.90;;;16.83;60.69;101073.03;4977428;28;99243;-45
2021/12/30 08:22:04;;;;;;;1.10;0.73;;;17.00;99.90;;;16.85;62.02;101079.13;4972454;28;97292;-46
2021/12/30 08:24:30;;;;;;;2.50;1.33;;;17.00;99.90;;;16.76;61.49;101090.28;4977907;28;97490;-48
2021/12/30 08:26:59;;;;;;;2.20;0.93;;;17.00;99.90;;;16.85;58.82;101095.13;4971505;28;96915;-46
2021/12/30 08:29:26;;;;;;;1.20;1.00;;;17.00;99.90;;;16.76;61.90;101090.28;4979878;28;97607;-46
2021/12/30 08:31:52;;;;;;;1.20;1.10;;;16.90;99.90;;;16.71;62.34;101086.16;4974185;28;97057;-51
2021/12/30 08:34:18;;;;;;;2.53;1.57;;;16.90;99.90;;;16.70;62.74;101085.31;4973231;28;99160;-48
2021/12/30 08:36:44;;;;;;;3.17;1.80;;;16.90;99.90;;;16.71;62.86;101096.81;4977468;27;97861;-55
2021/12/30 08:39:10;;;;;;;1.53;1.43;;;16.80;99.90;;;16.65;64.73;101097.97;4976013;28;114083;-50
2021/12/30 08:41:35;;;;;;;1.47;1.20;;;16.80;99.90;;;16.74;61.10;101101.97;4980148;28;97016;-44
2021/12/30 08:44:01;;;;;;;1.33;1.23;;;16.90;99.90;;;16.74;64.37;101113.47;4972333;28;96722;-44
2021/12/30 08:46:27;;;;;;;3.40;1.70;;;16.90;99.90;;;16.79;66.02;101106.13;4980679;28;96787;-45
2021/12/30 08:48:53;;;;;;;1.40;1.30;;;17.00;99.90;;;16.77;64.58;101110.66;4975017;28;98479;-47
2021/12/30 08:51:19;;;;;;;2.67;1.40;;;16.90;99.90;;;16.76;62.73;101106.25;4975969;28;97221;-47
2021/12/30 08:53:45;;;;;;;1.70;1.43;;;16.90;99.90;;;16.76;63.40;101116.06;4989559;28;97168;-50
2021/12/30 08:56:14;;;;;;;1.63;1.50;;;16.80;99.90;;;16.73;62.96;101124.22;4972880;28;116056;-45
2021/12/30 08:58:41;;;;;;;2.20;1.53;;;16.90;99.90;;;16.58;65.43;101116.06;4976439;28;99647;-44
2021/12/30 09:01:07;;;;;;;1.67;1.47;;;16.80;99.90;;;16.64;65.62;101117.56;4972317;28;96680;-46
2021/12/30 09:03:32;;;;;;;4.10;1.70;;;16.80;99.90;;;16.65;64.94;101135.28;4981070;28;98108;-44
2021/12/30 09:05:58;;;;;;;1.40;1.30;;;16.90;99.90;;;16.55;63.44;101131.38;4972365;28;102485;-50
2021/12/30 09:08:24;;;;;;;2.50;1.20;;;16.80;99.90;;;16.44;63.89;101131.06;4975654;28;97552;-48
2021/12/30 09:10:50;;;;;;;1.13;1.13;;;16.70;99.90;;;16.61;64.85;101133.69;4991277;28;96637;-45
2021/12/30 09:13:20;;;;;;;1.07;0.97;;;16.80;99.90;;;16.65;62.71;101136.13;4977421;28;97223;-45
2021/12/30 09:15:47;;;;;;;0.67;0.67;;;16.80;99.90;;;16.65;59.16;101125.47;4971324;28;96920;-46
2021/12/30 09:18:14;;;;;;;2.33;1.30;;;16.90;99.90;;;16.65;65.09;101121.94;4973309;28;97801;-44
2021/12/30 09:20:42;;;;;;;0.93;0.73;;;16.90;99.90;;;16.79;59.67;101126.56;4977693;28;97645;-49
2021/12/30 09:23:11;;;;;;;1.63;1.40;;;17.00;99.90;;;16.77;64.95;101129.28;4970364;28;97262;-45
2021/12/30 09:25:39;;;;;;;3.73;1.70;;;17.00;99.90;;;16.76;61.66;101143.56;4979200;28;96990;-45
2021/12/30 09:28:07;;;;;;;1.60;0.83;;;16.90;99.90;;;16.89;57.95;101143.75;4987069;28;97037;-47
2021/12/30 09:30:33;;;;;;;0.80;0.80;;;17.00;99.90;;;16.99;57.97;101149.47;4991778;28;99150;-44
2021/12/30 09:33:01;;;;;;;3.03;1.33;;;17.20;99.90;;;17.06;60.75;101149.03;4941962;28;97006;-48
2021/12/30 09:35:28;;;;;;;1.50;0.87;;;17.20;99.90;;;17.06;57.95;101150.84;4946494;28;99136;-46
2021/12/30 09:37:54;;;;;;;1.63;1.47;;;17.20;99.90;;;17.06;60.54;101153.50;4947911;28;97998;-46
2021/12/30 09:40:21;;;;;;;1.77;1.10;;;17.20;99.90;;;17.09;56.73;101153.34;4954081;28;98354;-44
2021/12/30 09:42:52;;;;;;;1.50;1.40;;;17.20;99.90;;;17.13;57.02;101152.22;4963760;28;99427;-48
2021/12/30 09:45:20;;;;;;;1.97;1.23;;;17.20;99.90;;;17.14;59.17;101161.94;4944388;28;97821;-44
2021/12/30 09:47:54;;;;;;;1.73;1.20;;;17.30;99.90;;;17.14;61.72;101159.28;4946751;28;100039;-46
2021/12/30 09:50:25;;;;;;;1.27;1.17;;;17.20;99.90;;;17.16;58.73;101165.38;4966874;28;97980;-44
2021/12/30 09:52:51;;;;;;;1.93;0.90;;;17.20;99.90;;;17.15;56.93;101166.34;4947441;28;97677;-49
2021/12/30 09:55:17;;;;;;;3.43;1.57;;;17.20;99.90;;;17.14;59.73;101168.13;4963004;28;98224;-44
2021/12/30 09:57:43;;;;;;;1.97;1.50;;;17.30;99.90;;;17.15;63.66;101166.34;4956281;28;99109;-44
2021/12/30 10:00:13;;;;;;;4.10;1.67;;;17.30;99.90;;;17.10;60.72;101174.59;4950030;28;98116;-48
2021/12/30 10:02:43;;;;;;;1.30;1.20;;;17.20;99.90;;;17.12;58.40;101183.34;4955177;28;100212;-47
2021/12/30 10:05:31;;;;;;;1.33;1.23;;;17.20;99.90;;;17.14;59.98;101175.28;4959623;28;97518;-46
2021/12/30 10:08:26;;;;;;;2.47;1.43;;;17.20;99.90;;;17.14;58.13;101180.59;4965754;28;102641;-44
2021/12/30 10:10:57;;;;;;;1.80;1.10;;;17.20;99.90;;;17.12;57.57;101183.34;4963620;28;97351;-43
2021/12/30 10:13:29;;;;;;;4.10;1.20;;;17.20;99.90;;;17.17;63.52;101180.44;4956338;28;99916;-47